Time;durP1;ratioP1;P1;durP2;ratioP2;P2;SDS_P1;SDS_P2;PMS_P1;PMS_P2;Temp;Humidity;BMP_temperature;BMP_pressure;BME280_temperature;BME280_humidity;BME280_pressure;Samples;Min_cycle;Max_cycle;Signal;HPM_P1;HPM_P2
2023/05/05 00:01:23;;;;;;;7.25;5.15;;;;;;;;;;5012805;28;20137;-82
2023/05/05 00:03:50;;;;;;;6.97;5.65;;;;;;;;;;5012658;28;20105;-82
2023/05/05 00:06:17;;;;;;;7.30;5.22;;;;;;;;;;4996441;28;20054;-82
2023/05/05 00:08:45;;;;;;;5.20;4.60;;;;;;;;;;4996155;28;20064;-81
2023/05/05 00:11:11;;;;;;;6.85;4.72;;;;;;;;;;4979198;28;20089;-81
2023/05/05 00:13:38;;;;;;;6.63;4.93;;;;;;;;;;4999588;28;20057;-81
2023/05/05 00:16:05;;;;;;;6.50;4.72;;;;;;;;;;4999570;28;20117;-82
2023/05/05 00:18:32;;;;;;;11.13;5.53;;;;;;;;;;5015792;28;20046;-81
2023/05/05 00:20:59;;;;;;;6.97;5.45;;;;;;;;;;5002412;28;20136;-79
2023/05/05 00:23:26;;;;;;;6.60;5.30;;;;;;;;;;5004877;28;20080;-79
2023/05/05 00:25:53;;;;;;;8.65;5.30;;;;;;;;;;5001268;28;20064;-78
2023/05/05 00:28:20;;;;;;;7.25;5.38;;;;;;;;;;4983983;28;20056;-78
2023/05/05 00:30:46;;;;;;;6.63;5.10;;;;;;;;;;4999728;28;20465;-81
2023/05/05 00:33:13;;;;;;;6.55;4.93;;;;;;;;;;5000573;28;20056;-79
2023/05/05 00:35:40;;;;;;;6.35;5.50;;;;;;;;;;5001324;28;20095;-79
2023/05/05 00:38:07;;;;;;;6.70;5.60;;;;;;;;;;4987627;28;20096;-78
2023/05/05 00:40:35;;;;;;;7.72;5.47;;;;;;;;;;5003063;28;20049;-78
2023/05/05 00:43:01;;;;;;;7.53;6.00;;;;;;;;;;5002196;28;20080;-82
2023/05/05 00:45:29;;;;;;;7.88;5.63;;;;;;;;;;4999025;28;20072;-81
2023/05/05 00:47:56;;;;;;;7.70;5.80;;;;;;;;;;5015636;28;20079;-82
2023/05/05 00:50:29;;;;;;;8.13;5.65;;;;;;;;;;5015522;28;20033;-83
2023/05/05 00:52:59;;;;;;;9.73;5.95;;;;;;;;;;4999047;28;20211;-82
2023/05/05 00:55:28;;;;;;;7.50;5.72;;;;;;;;;;4998779;28;20140;-82
2023/05/05 00:57:56;;;;;;;7.07;5.72;;;;;;;;;;4998446;28;20053;-83
2023/05/05 01:00:23;;;;;;;7.93;5.80;;;;;;;;;;4998505;28;20049;-82
2023/05/05 01:02:51;;;;;;;7.63;5.90;;;;;;;;;;4982676;28;20056;-82
2023/05/05 01:05:19;;;;;;;8.45;5.68;;;;;;;;;;4999275;28;20395;-82
2023/05/05 01:07:45;;;;;;;6.72;5.68;;;;;;;;;;4983333;28;20402;-82
2023/05/05 01:10:29;;;;;;;7.57;5.32;;;;;;;;;;5015218;28;20054;-82
2023/05/05 01:13:36;;;;;;;10.05;5.53;;;;;;;;;;4983856;28;20535;-82
2023/05/05 01:16:12;;;;;;;10.43;5.70;;;;;;;;;;4994982;28;20060;-82
2023/05/05 01:18:50;;;;;;;6.18;5.57;;;;;;;;;;5032954;28;20053;-82
2023/05/05 01:21:40;;;;;;;9.13;5.97;;;;;;;;;;4998629;28;20053;-82
2023/05/05 01:24:33;;;;;;;8.73;6.13;;;;;;;;;;5014867;28;20575;-82
2023/05/05 01:27:26;;;;;;;7.57;5.90;;;;;;;;;;5015167;28;20144;-82
2023/05/05 01:29:56;;;;;;;9.32;5.68;;;;;;;;;;5015529;28;20061;-82
2023/05/05 01:32:26;;;;;;;7.68;5.35;;;;;;;;;;5032368;28;20057;-82
2023/05/05 01:35:10;;;;;;;9.48;5.93;;;;;;;;;;4982693;28;20053;-82
2023/05/05 01:37:50;;;;;;;7.75;5.75;;;;;;;;;;5014964;28;20061;-82
2023/05/05 01:40:20;;;;;;;8.93;5.47;;;;;;;;;;5014564;28;20041;-82
2023/05/05 01:42:46;;;;;;;7.47;5.93;;;;;;;;;;4982880;28;20140;-83
2023/05/05 01:45:13;;;;;;;10.65;6.07;;;;;;;;;;5015123;28;20049;-82
2023/05/05 01:47:40;;;;;;;8.63;6.05;;;;;;;;;;4983422;28;20050;-81
2023/05/05 01:50:07;;;;;;;6.78;6.07;;;;;;;;;;4979506;28;20141;-81
2023/05/05 01:52:35;;;;;;;9.43;6.03;;;;;;;;;;4979628;28;20054;-81
2023/05/05 01:55:02;;;;;;;8.25;6.30;;;;;;;;;;4997853;28;20056;-81
2023/05/05 01:57:30;;;;;;;6.97;6.28;;;;;;;;;;4982925;28;20054;-81
2023/05/05 01:59:57;;;;;;;9.82;6.20;;;;;;;;;;4982408;28;20060;-81
2023/05/05 02:02:25;;;;;;;7.53;6.28;;;;;;;;;;4998712;28;20057;-81
2023/05/05 02:04:52;;;;;;;8.07;6.10;;;;;;;;;;5013991;28;20497;-81
2023/05/05 02:07:18;;;;;;;8.77;5.63;;;;;;;;;;5014970;28;20060;-81
2023/05/05 02:09:45;;;;;;;6.75;5.88;;;;;;;;;;4999149;28;20053;-81
2023/05/05 02:12:12;;;;;;;7.72;5.93;;;;;;;;;;4998246;28;20060;-81
2023/05/05 02:14:39;;;;;;;7.70;5.97;;;;;;;;;;4982354;28;20058;-82
2023/05/05 02:17:05;;;;;;;6.43;5.70;;;;;;;;;;4998308;28;20501;-82
2023/05/05 02:19:35;;;;;;;6.53;5.82;;;;;;;;;;4998355;28;20049;-80
2023/05/05 02:22:02;;;;;;;9.23;6.35;;;;;;;;;;4998503;28;20049;-80
2023/05/05 02:24:29;;;;;;;7.07;5.85;;;;;;;;;;5015467;28;20056;-81
2023/05/05 02:26:57;;;;;;;8.38;5.15;;;;;;;;;;5002509;28;20509;-81
2023/05/05 02:29:47;;;;;;;7.40;5.30;;;;;;;;;;5002712;28;20059;-81
2023/05/05 02:32:18;;;;;;;6.15;5.55;;;;;;;;;;5011554;28;20053;-82
2023/05/05 02:34:45;;;;;;;8.52;5.32;;;;;;;;;;4999190;28;20053;-82
2023/05/05 02:37:14;;;;;;;8.85;6.47;;;;;;;;;;4998976;28;20504;-82
2023/05/05 02:39:46;;;;;;;6.82;6.10;;;;;;;;;;4998704;28;20049;-81
2023/05/05 02:42:15;;;;;;;8.90;6.57;;;;;;;;;;5015345;28;20476;-81
2023/05/05 02:44:42;;;;;;;7.53;5.68;;;;;;;;;;4998563;28;20514;-81
2023/05/05 02:47:09;;;;;;;7.63;5.88;;;;;;;;;;4998407;28;20136;-81
2023/05/05 02:49:36;;;;;;;6.95;5.97;;;;;;;;;;5014842;28;20062;-80
2023/05/05 02:52:02;;;;;;;7.53;6.45;;;;;;;;;;4998242;28;20056;-80
2023/05/05 02:54:30;;;;;;;7.80;6.15;;;;;;;;;;4983428;28;20061;-80
2023/05/05 02:56:56;;;;;;;8.25;6.85;;;;;;;;;;4999621;28;20069;-80
2023/05/05 02:59:38;;;;;;;6.88;6.03;;;;;;;;;;4999258;28;20057;-80
2023/05/05 03:02:42;;;;;;;9.35;6.68;;;;;;;;;;4983626;28;20053;-81
2023/05/05 03:05:18;;;;;;;7.22;6.18;;;;;;;;;;5002502;28;20053;-80
2023/05/05 03:08:02;;;;;;;6.90;6.07;;;;;;;;;;5003749;28;20509;-80
2023/05/05 03:10:32;;;;;;;7.45;6.72;;;;;;;;;;4988142;28;20128;-80
2023/05/05 03:13:00;;;;;;;9.15;6.72;;;;;;;;;;5003469;28;20104;-80
2023/05/05 03:15:56;;;;;;;9.35;6.28;;;;;;;;;;5003296;28;20061;-80
2023/05/05 03:18:23;;;;;;;8.02;6.43;;;;;;;;;;5006128;28;20095;-79
2023/05/05 03:20:50;;;;;;;7.25;6.45;;;;;;;;;;4987029;28;20056;-79
2023/05/05 03:23:19;;;;;;;8.77;6.95;;;;;;;;;;5003418;28;20079;-79
2023/05/05 03:25:47;;;;;;;7.28;5.72;;;;;;;;;;4987737;28;20065;-80
2023/05/05 03:28:15;;;;;;;7.75;6.65;;;;;;;;;;5019174;28;20092;-81
2023/05/05 03:30:42;;;;;;;8.00;6.70;;;;;;;;;;4986091;28;20493;-83
2023/05/05 03:33:10;;;;;;;7.93;7.13;;;;;;;;;;5003000;28;20124;-82
2023/05/05 03:35:36;;;;;;;7.55;5.90;;;;;;;;;;5011621;28;20071;-83
2023/05/05 03:38:03;;;;;;;10.00;6.57;;;;;;;;;;5016396;28;20121;-81
2023/05/05 03:40:30;;;;;;;7.95;6.65;;;;;;;;;;5031352;28;20129;-81
2023/05/05 03:43:10;;;;;;;7.05;6.43;;;;;;;;;;5020018;28;20069;-82
2023/05/05 03:45:36;;;;;;;9.90;6.40;;;;;;;;;;5016526;28;20089;-83
2023/05/05 03:48:04;;;;;;;8.77;6.78;;;;;;;;;;5032446;28;20061;-82
2023/05/05 03:50:31;;;;;;;9.50;6.22;;;;;;;;;;5012953;28;20049;-80
2023/05/05 03:52:57;;;;;;;8.10;6.55;;;;;;;;;;5025663;28;20429;-81
2023/05/05 03:55:24;;;;;;;8.07;6.50;;;;;;;;;;5027732;28;20049;-82
2023/05/05 03:57:51;;;;;;;8.70;6.78;;;;;;;;;;4988295;28;20057;-80
2023/05/05 04:00:18;;;;;;;7.07;6.38;;;;;;;;;;5020752;28;20049;-82
2023/05/05 04:02:45;;;;;;;8.15;7.13;;;;;;;;;;4988463;28;20132;-82
2023/05/05 04:05:11;;;;;;;10.82;6.47;;;;;;;;;;5018825;28;20120;-82
2023/05/05 04:07:38;;;;;;;7.88;6.20;;;;;;;;;;5003466;28;20053;-82
2023/05/05 04:10:06;;;;;;;7.28;6.00;;;;;;;;;;5012783;28;20051;-83
2023/05/05 04:12:33;;;;;;;9.23;7.10;;;;;;;;;;5022464;28;20053;-82
2023/05/05 04:15:00;;;;;;;11.23;6.63;;;;;;;;;;5039546;28;20080;-81
2023/05/05 04:17:26;;;;;;;10.68;6.60;;;;;;;;;;5023330;28;20064;-83
2023/05/05 04:19:53;;;;;;;9.77;6.95;;;;;;;;;;5007308;28;20469;-82
2023/05/05 04:22:20;;;;;;;8.02;6.25;;;;;;;;;;5038834;28;20127;-82
2023/05/05 04:24:47;;;;;;;9.65;6.90;;;;;;;;;;5058223;28;20083;-81
2023/05/05 04:27:13;;;;;;;8.48;6.70;;;;;;;;;;5026491;28;20059;-83
2023/05/05 04:29:40;;;;;;;7.88;7.05;;;;;;;;;;5040172;28;20061;-82
2023/05/05 04:32:07;;;;;;;9.82;7.30;;;;;;;;;;5023284;28;20061;-83
2023/05/05 04:34:33;;;;;;;9.50;6.30;;;;;;;;;;5032554;28;20456;-85
2023/05/05 04:37:00;;;;;;;10.13;6.32;;;;;;;;;;5031769;28;20053;-83
2023/05/05 04:39:27;;;;;;;9.05;6.38;;;;;;;;;;5048061;28;20053;-85
2023/05/05 04:41:54;;;;;;;9.82;6.75;;;;;;;;;;5017058;28;20081;-84
2023/05/05 04:44:21;;;;;;;8.70;6.53;;;;;;;;;;5021739;28;20057;-84
2023/05/05 04:46:48;;;;;;;8.50;6.57;;;;;;;;;;5012467;28;20053;-83
2023/05/05 04:49:15;;;;;;;10.07;6.15;;;;;;;;;;5007156;28;20061;-82
2023/05/05 04:51:42;;;;;;;6.40;5.80;;;;;;;;;;4989555;28;20049;-81
2023/05/05 04:54:09;;;;;;;11.27;7.18;;;;;;;;;;5023903;28;20047;-82
2023/05/05 04:56:35;;;;;;;8.43;5.43;;;;;;;;;;4996337;28;20494;-81
2023/05/05 04:59:02;;;;;;;11.82;6.05;;;;;;;;;;5001614;28;20049;-80
2023/05/05 05:01:32;;;;;;;8.00;6.75;;;;;;;;;;5005213;28;20121;-81
2023/05/05 05:04:03;;;;;;;9.13;5.75;;;;;;;;;;5004247;28;20053;-81
2023/05/05 05:06:31;;;;;;;8.93;5.95;;;;;;;;;;4996371;28;20472;-81
2023/05/05 05:08:57;;;;;;;10.52;6.15;;;;;;;;;;4998001;28;20054;-82
2023/05/05 05:11:24;;;;;;;5.65;5.00;;;;;;;;;;5008688;28;20041;-84
2023/05/05 05:13:51;;;;;;;6.78;5.80;;;;;;;;;;4999821;28;20603;-82
2023/05/05 05:16:18;;;;;;;7.95;5.75;;;;;;;;;;5001598;28;20456;-83
2023/05/05 05:18:45;;;;;;;10.07;5.97;;;;;;;;;;5000796;28;20087;-84
2023/05/05 05:21:12;;;;;;;8.88;5.40;;;;;;;;;;4998881;28;20521;-81
2023/05/05 05:23:38;;;;;;;7.13;6.10;;;;;;;;;;5017228;28;20057;-82
2023/05/05 05:26:08;;;;;;;8.00;5.88;;;;;;;;;;5000434;28;20433;-80
2023/05/05 05:28:35;;;;;;;9.52;6.07;;;;;;;;;;5016741;28;20056;-82
2023/05/05 05:31:02;;;;;;;8.95;5.40;;;;;;;;;;5000720;28;20053;-83
2023/05/05 05:33:28;;;;;;;6.78;5.75;;;;;;;;;;5016241;28;20057;-83
2023/05/05 05:35:55;;;;;;;7.57;6.00;;;;;;;;;;5018701;28;20083;-83
2023/05/05 05:38:22;;;;;;;9.80;6.03;;;;;;;;;;4983193;28;20060;-78
2023/05/05 05:40:49;;;;;;;8.32;6.05;;;;;;;;;;5013642;28;20049;-78
2023/05/05 05:43:16;;;;;;;9.70;6.43;;;;;;;;;;5014322;28;20075;-77
2023/05/05 05:45:42;;;;;;;9.57;6.82;;;;;;;;;;5014415;28;20050;-77
2023/05/05 05:48:09;;;;;;;7.30;6.30;;;;;;;;;;4998546;28;20083;-77
2023/05/05 05:50:36;;;;;;;8.13;5.90;;;;;;;;;;5013680;28;20049;-77
2023/05/05 05:53:02;;;;;;;10.50;6.13;;;;;;;;;;5014673;28;20494;-79
2023/05/05 05:55:29;;;;;;;8.57;6.75;;;;;;;;;;4999027;28;20053;-79
2023/05/05 05:57:56;;;;;;;7.10;5.80;;;;;;;;;;5016728;28;20045;-79
2023/05/05 06:00:23;;;;;;;8.75;5.78;;;;;;;;;;4998033;28;20128;-79
2023/05/05 06:02:50;;;;;;;7.38;6.25;;;;;;;;;;4999970;28;20421;-79
2023/05/05 06:05:17;;;;;;;8.43;5.65;;;;;;;;;;5014023;28;20057;-79
2023/05/05 06:07:43;;;;;;;7.20;6.15;;;;;;;;;;4996112;28;20057;-77
2023/05/05 06:10:10;;;;;;;10.52;6.28;;;;;;;;;;5029666;28;20600;-75
2023/05/05 06:12:52;;;;;;;9.40;5.80;;;;;;;;;;5013870;28;20049;-75
2023/05/05 06:15:19;;;;;;;6.95;6.18;;;;;;;;;;5012072;28;20057;-76
2023/05/05 06:17:46;;;;;;;8.93;5.80;;;;;;;;;;5012017;28;20053;-74
2023/05/05 06:20:12;;;;;;;8.10;5.70;;;;;;;;;;5011775;28;20514;-73
2023/05/05 06:22:39;;;;;;;8.65;5.32;;;;;;;;;;5011821;28;20049;-74
2023/05/05 06:25:06;;;;;;;8.52;5.47;;;;;;;;;;5011665;28;20082;-74
2023/05/05 06:27:33;;;;;;;7.18;5.05;;;;;;;;;;5011384;28;20133;-74
2023/05/05 06:30:00;;;;;;;7.22;4.70;;;;;;;;;;5011728;28;20053;-74
2023/05/05 06:32:27;;;;;;;7.95;4.97;;;;;;;;;;5011559;28;20399;-74
2023/05/05 06:34:53;;;;;;;10.05;6.22;;;;;;;;;;4995401;28;20053;-75
2023/05/05 06:37:20;;;;;;;5.43;4.82;;;;;;;;;;5011653;28;20057;-74
2023/05/05 06:39:47;;;;;;;7.50;4.63;;;;;;;;;;5014860;28;20450;-74
2023/05/05 06:42:14;;;;;;;8.80;6.05;;;;;;;;;;5015395;28;20057;-75
2023/05/05 06:44:41;;;;;;;8.55;5.00;;;;;;;;;;5015220;28;20493;-74
2023/05/05 06:47:07;;;;;;;6.90;4.78;;;;;;;;;;5015115;28;20053;-75
2023/05/05 06:49:34;;;;;;;6.50;4.35;;;;;;;;;;5015233;28;20057;-74
2023/05/05 06:52:01;;;;;;;8.63;4.18;;;;;;;;;;5014950;28;20053;-75
2023/05/05 06:54:28;;;;;;;6.72;4.45;;;;;;;;;;4998757;28;20058;-74
2023/05/05 06:56:54;;;;;;;6.78;4.32;;;;;;;;;;5015030;28;20053;-75
2023/05/05 06:59:25;;;;;;;7.78;4.28;;;;;;;;;;4999549;28;20050;-75
2023/05/05 07:01:51;;;;;;;6.00;3.92;;;;;;;;;;5021772;28;20056;-75
2023/05/05 07:04:18;;;;;;;5.32;4.07;;;;;;;;;;5015754;28;20420;-76
2023/05/05 07:06:45;;;;;;;6.43;4.25;;;;;;;;;;5015051;28;20456;-75
2023/05/05 07:09:12;;;;;;;5.72;3.67;;;;;;;;;;4995963;28;20549;-77
2023/05/05 07:11:42;;;;;;;7.35;3.40;;;;;;;;;;5008782;28;20049;-76
2023/05/05 07:14:09;;;;;;;7.45;4.07;;;;;;;;;;5014088;28;20050;-76
2023/05/05 07:16:36;;;;;;;7.78;4.30;;;;;;;;;;5011107;28;20037;-79
2023/05/05 07:19:06;;;;;;;8.23;4.22;;;;;;;;;;5008150;28;20053;-76
2023/05/05 07:21:33;;;;;;;6.32;3.42;;;;;;;;;;4987218;28;20129;-78
2023/05/05 07:24:01;;;;;;;4.68;3.63;;;;;;;;;;4971850;28;20136;-75
2023/05/05 07:26:29;;;;;;;7.70;3.20;;;;;;;;;;5022032;28;20524;-76
2023/05/05 07:28:57;;;;;;;5.55;3.60;;;;;;;;;;5017465;28;20141;-75
2023/05/05 07:31:25;;;;;;;4.00;3.00;;;;;;;;;;4988422;28;20054;-75
2023/05/05 07:33:52;;;;;;;4.97;3.22;;;;;;;;;;4996506;28;20053;-75
2023/05/05 07:36:22;;;;;;;6.43;3.53;;;;;;;;;;5016378;28;20077;-75
2023/05/05 07:38:49;;;;;;;2.83;2.63;;;;;;;;;;5001078;28;20103;-75
2023/05/05 07:41:17;;;;;;;3.60;3.13;;;;;;;;;;5000316;28;20498;-75
2023/05/05 07:43:44;;;;;;;5.43;3.38;;;;;;;;;;4995392;28;20436;-75
2023/05/05 07:46:12;;;;;;;7.35;4.07;;;;;;;;;;4999578;28;20053;-77
2023/05/05 07:48:40;;;;;;;6.63;2.90;;;;;;;;;;5015881;28;20063;-77
2023/05/05 07:51:08;;;;;;;8.50;3.05;;;;;;;;;;4985639;28;20157;-78
2023/05/05 07:53:35;;;;;;;6.40;3.40;;;;;;;;;;4988686;28;20060;-77
2023/05/05 07:56:02;;;;;;;3.65;2.75;;;;;;;;;;5027077;28;20056;-76
2023/05/05 07:58:28;;;;;;;3.38;2.70;;;;;;;;;;4993958;28;20050;-75
2023/05/05 08:00:55;;;;;;;5.57;3.70;;;;;;;;;;5010660;28;20416;-75
2023/05/05 08:03:23;;;;;;;7.78;2.90;;;;;;;;;;5001064;28;20061;-77
2023/05/05 08:06:10;;;;;;;9.32;3.38;;;;;;;;;;4965202;28;20062;-79
2023/05/05 08:08:37;;;;;;;4.90;3.13;;;;;;;;;;4961976;28;20140;-77
2023/05/05 08:11:05;;;;;;;7.20;2.80;;;;;;;;;;4966858;28;20077;-74
2023/05/05 08:13:32;;;;;;;5.32;3.58;;;;;;;;;;4956188;28;20065;-77
2023/05/05 08:15:59;;;;;;;4.68;3.17;;;;;;;;;;4953897;28;20247;-76
2023/05/05 08:18:26;;;;;;;6.05;3.58;;;;;;;;;;4964495;28;20447;-76
2023/05/05 08:20:53;;;;;;;5.20;3.10;;;;;;;;;;4959892;28;20058;-75
2023/05/05 08:23:20;;;;;;;6.88;3.63;;;;;;;;;;4965452;28;20081;-76
2023/05/05 08:25:47;;;;;;;4.82;2.72;;;;;;;;;;5016546;28;20058;-76
2023/05/05 08:28:14;;;;;;;6.97;3.47;;;;;;;;;;5001598;28;20049;-74
2023/05/05 08:30:41;;;;;;;5.50;3.17;;;;;;;;;;5000229;28;20053;-76
2023/05/05 08:33:08;;;;;;;5.95;2.42;;;;;;;;;;5002347;28;20054;-77
2023/05/05 08:35:35;;;;;;;4.15;3.00;;;;;;;;;;5002717;28;20053;-77
2023/05/05 08:38:02;;;;;;;5.75;2.60;;;;;;;;;;5018044;28;20504;-76
2023/05/05 08:40:31;;;;;;;9.57;2.80;;;;;;;;;;5017707;28;20528;-78
2023/05/05 08:42:59;;;;;;;3.72;2.38;;;;;;;;;;4989772;28;20273;-78
2023/05/05 08:45:27;;;;;;;5.97;2.80;;;;;;;;;;5014067;28;20053;-76
2023/05/05 08:48:00;;;;;;;5.65;2.70;;;;;;;;;;4998049;28;20057;-76
2023/05/05 08:50:28;;;;;;;5.70;2.80;;;;;;;;;;5013688;28;20136;-76
2023/05/05 08:53:01;;;;;;;3.33;3.03;;;;;;;;;;4998270;28;20557;-76
2023/05/05 08:55:28;;;;;;;4.57;3.70;;;;;;;;;;5014201;28;20053;-76
2023/05/05 08:57:56;;;;;;;6.20;4.07;;;;;;;;;;4998073;28;20107;-76
2023/05/05 09:00:25;;;;;;;6.72;3.63;;;;;;;;;;5014098;28;20053;-77
2023/05/05 09:02:55;;;;;;;7.53;3.55;;;;;;;;;;4997490;28;20453;-76
2023/05/05 09:05:22;;;;;;;5.65;2.63;;;;;;;;;;5014039;28;20107;-76
2023/05/05 09:07:49;;;;;;;3.30;2.13;;;;;;;;;;4998061;28;20061;-76
2023/05/05 09:10:16;;;;;;;5.47;1.95;;;;;;;;;;5015606;28;20148;-76
2023/05/05 09:12:43;;;;;;;4.00;1.70;;;;;;;;;;5014086;28;20053;-77
2023/05/05 09:15:12;;;;;;;2.58;1.80;;;;;;;;;;4997920;28;20060;-77
2023/05/05 09:17:39;;;;;;;3.95;1.85;;;;;;;;;;5014025;28;20057;-77
2023/05/05 09:20:08;;;;;;;3.15;1.60;;;;;;;;;;5014321;28;20123;-77
2023/05/05 09:22:39;;;;;;;3.97;1.40;;;;;;;;;;5014027;28;20049;-76
2023/05/05 09:25:08;;;;;;;3.78;1.77;;;;;;;;;;5014157;28;20846;-76
2023/05/05 09:27:40;;;;;;;2.03;1.85;;;;;;;;;;5014663;28;20057;-78
2023/05/05 09:30:09;;;;;;;2.92;1.77;;;;;;;;;;4981861;28;20089;-77
2023/05/05 09:32:46;;;;;;;2.95;1.75;;;;;;;;;;5013585;28;20148;-78
2023/05/05 09:35:14;;;;;;;5.20;1.98;;;;;;;;;;5014572;28;20053;-78
2023/05/05 09:37:40;;;;;;;3.20;2.17;;;;;;;;;;5013871;28;20098;-75
2023/05/05 09:40:08;;;;;;;4.68;1.95;;;;;;;;;;5013778;28;20525;-77
2023/05/05 09:42:36;;;;;;;4.88;2.20;;;;;;;;;;5013922;28;20056;-77
2023/05/05 09:45:19;;;;;;;3.67;1.90;;;;;;;;;;5013825;28;20050;-76
2023/05/05 09:47:46;;;;;;;5.67;2.00;;;;;;;;;;5013395;28;20049;-76
2023/05/05 09:50:17;;;;;;;4.43;1.75;;;;;;;;;;4981382;28;20053;-76
2023/05/05 09:53:01;;;;;;;2.47;1.92;;;;;;;;;;5014768;28;20494;-77
2023/05/05 09:55:29;;;;;;;2.83;1.85;;;;;;;;;;4997435;28;20117;-77
2023/05/05 09:58:04;;;;;;;3.70;2.00;;;;;;;;;;4997870;28;20525;-77
2023/05/05 10:00:40;;;;;;;3.20;1.60;;;;;;;;;;4994384;28;20061;-77
2023/05/05 10:03:07;;;;;;;7.25;2.05;;;;;;;;;;5018156;28;20050;-77
2023/05/05 10:05:47;;;;;;;2.13;1.92;;;;;;;;;;5001373;28;20503;-76
2023/05/05 10:08:15;;;;;;;2.65;1.83;;;;;;;;;;4989252;28;20525;-77
2023/05/05 10:10:56;;;;;;;4.88;2.00;;;;;;;;;;5017319;28;20499;-76
2023/05/05 10:13:23;;;;;;;5.32;1.77;;;;;;;;;;5013882;28;20137;-77
2023/05/05 10:15:52;;;;;;;2.50;1.60;;;;;;;;;;5020623;28;20077;-76
2023/05/05 10:18:22;;;;;;;4.00;1.52;;;;;;;;;;5007593;28;20522;-76
2023/05/05 10:21:00;;;;;;;2.33;1.42;;;;;;;;;;5013118;28;20081;-76
2023/05/05 10:23:51;;;;;;;1.70;1.60;;;;;;;;;;5017816;28;20060;-76
2023/05/05 10:26:18;;;;;;;5.07;1.60;;;;;;;;;;4992549;28;20049;-74
2023/05/05 10:28:54;;;;;;;4.05;1.88;;;;;;;;;;5003001;28;20053;-76
2023/05/05 10:31:46;;;;;;;4.78;1.98;;;;;;;;;;5017906;28;20545;-73
2023/05/05 10:34:37;;;;;;;5.22;1.90;;;;;;;;;;5000611;28;20054;-73
2023/05/05 10:37:05;;;;;;;2.67;1.65;;;;;;;;;;5006649;28;20085;-73
2023/05/05 10:39:32;;;;;;;2.65;1.95;;;;;;;;;;5005759;28;20072;-74
2023/05/05 10:42:01;;;;;;;4.28;1.50;;;;;;;;;;5017040;28;20042;-73
2023/05/05 10:44:32;;;;;;;3.35;1.70;;;;;;;;;;4987909;28;20041;-74
2023/05/05 10:46:58;;;;;;;4.03;1.40;;;;;;;;;;5002065;28;20057;-73
2023/05/05 10:49:42;;;;;;;2.60;1.77;;;;;;;;;;5022311;28;20641;-74
2023/05/05 10:52:20;;;;;;;2.20;1.52;;;;;;;;;;4994157;28;20493;-74
2023/05/05 10:55:15;;;;;;;3.75;1.63;;;;;;;;;;5018054;28;20132;-74
2023/05/05 10:57:44;;;;;;;3.78;1.45;;;;;;;;;;4996052;28;20528;-76
2023/05/05 11:00:37;;;;;;;5.25;1.70;;;;;;;;;;5014729;28;20612;-74
2023/05/05 11:03:30;;;;;;;;;;;;;;;;;;5003761;28;20054;-74
2023/05/05 11:06:03;;;;;;;3.60;2.03;;;;;;;;;;5010290;28;19991;-74
2023/05/05 11:08:31;;;;;;;2.40;1.65;;;;;;;;;;5006760;28;20446;-74
2023/05/05 11:10:58;;;;;;;2.03;1.50;;;;;;;;;;4995401;28;20057;-74
2023/05/05 11:13:25;;;;;;;3.20;2.35;;;;;;;;;;5005787;28;20049;-73
2023/05/05 11:15:53;;;;;;;3.15;1.60;;;;;;;;;;5017019;28;20053;-75
2023/05/05 11:18:36;;;;;;;2.72;1.83;;;;;;;;;;4987698;28;20053;-74
2023/05/05 11:21:14;;;;;;;2.03;1.40;;;;;;;;;;5018331;28;20414;-79
2023/05/05 11:23:45;;;;;;;3.30;1.60;;;;;;;;;;4984626;28;20046;-77
2023/05/05 11:26:13;;;;;;;3.45;1.90;;;;;;;;;;5002452;28;20135;-77
2023/05/05 11:29:00;;;;;;;2.15;1.95;;;;;;;;;;5001161;28;20089;-77
2023/05/05 11:31:29;;;;;;;2.78;1.85;;;;;;;;;;5000755;28;20049;-77
2023/05/05 11:34:27;;;;;;;3.28;1.85;;;;;;;;;;5024964;28;20061;-77
2023/05/05 11:37:06;;;;;;;1.90;1.40;;;;;;;;;;5019414;28;20475;-78
2023/05/05 11:40:02;;;;;;;3.13;1.95;;;;;;;;;;4989896;28;20061;-78
2023/05/05 11:42:29;;;;;;;2.95;1.60;;;;;;;;;;4987290;28;20498;-77
2023/05/05 11:44:56;;;;;;;4.43;1.90;;;;;;;;;;4989468;28;20076;-78
2023/05/05 11:47:22;;;;;;;3.55;1.85;;;;;;;;;;4989300;28;20529;-76
2023/05/05 11:49:49;;;;;;;2.80;2.00;;;;;;;;;;5016062;28;20046;-78
2023/05/05 11:52:16;;;;;;;2.20;1.70;;;;;;;;;;4975687;28;20060;-78
2023/05/05 11:54:47;;;;;;;3.30;1.98;;;;;;;;;;4971287;28;20049;-77
2023/05/05 11:57:16;;;;;;;2.23;1.57;;;;;;;;;;4999811;28;20130;-77
2023/05/05 12:00:09;;;;;;;1.70;1.60;;;;;;;;;;4998506;28;20862;-78
2023/05/05 12:02:36;;;;;;;3.22;1.63;;;;;;;;;;5004801;28;20053;-77
2023/05/05 12:05:04;;;;;;;2.53;1.65;;;;;;;;;;5000646;28;20053;-76
2023/05/05 12:07:32;;;;;;;2.55;1.35;;;;;;;;;;5003709;28;20138;-77
2023/05/05 12:09:58;;;;;;;2.08;1.35;;;;;;;;;;4993017;28;20060;-77
2023/05/05 12:12:36;;;;;;;2.50;1.60;;;;;;;;;;5006200;28;20108;-81
2023/05/05 12:15:04;;;;;;;3.58;1.42;;;;;;;;;;4979294;28;20061;-79
2023/05/05 12:17:38;;;;;;;1.70;1.08;;;;;;;;;;4997981;28;20393;-79
2023/05/05 12:20:06;;;;;;;3.10;1.10;;;;;;;;;;5012411;28;20057;-79
2023/05/05 12:22:33;;;;;;;3.45;1.10;;;;;;;;;;4996904;28;20056;-79
2023/05/05 12:25:02;;;;;;;2.45;0.90;;;;;;;;;;4995832;28;20418;-80
2023/05/05 12:27:29;;;;;;;0.93;0.90;;;;;;;;;;5004808;28;20052;-79
2023/05/05 12:29:56;;;;;;;2.53;1.45;;;;;;;;;;5019412;28;20057;-80
2023/05/05 12:32:26;;;;;;;1.73;0.88;;;;;;;;;;4980606;28;20409;-80
2023/05/05 12:34:57;;;;;;;2.40;1.50;;;;;;;;;;4981164;28;20426;-79
2023/05/05 12:37:25;;;;;;;1.48;1.13;;;;;;;;;;4989284;28;20056;-78
2023/05/05 12:39:53;;;;;;;1.98;1.20;;;;;;;;;;4994945;28;20085;-78
2023/05/05 12:42:22;;;;;;;1.17;1.05;;;;;;;;;;4980089;28;20060;-78
2023/05/05 12:44:48;;;;;;;3.72;1.45;;;;;;;;;;5004486;28;20111;-79
2023/05/05 12:47:29;;;;;;;2.38;1.35;;;;;;;;;;5017682;28;20041;-78
2023/05/05 12:49:56;;;;;;;4.32;1.25;;;;;;;;;;4979388;28;20103;-79
2023/05/05 12:52:23;;;;;;;2.67;1.20;;;;;;;;;;4986251;28;20417;-79
2023/05/05 12:54:57;;;;;;;3.47;1.23;;;;;;;;;;5019560;28;20060;-79
2023/05/05 12:57:24;;;;;;;1.40;1.30;;;;;;;;;;4987943;28;20417;-77
2023/05/05 12:59:52;;;;;;;2.67;1.20;;;;;;;;;;4989169;28;20053;-82
2023/05/05 13:02:19;;;;;;;2.72;1.40;;;;;;;;;;4981334;28;20061;-84
2023/05/05 13:04:56;;;;;;;2.45;1.35;;;;;;;;;;4980920;28;20104;-81
2023/05/05 13:07:22;;;;;;;1.48;1.20;;;;;;;;;;4982315;28;20049;-82
2023/05/05 13:09:50;;;;;;;0.95;0.93;;;;;;;;;;5021523;28;20052;-82
2023/05/05 13:12:17;;;;;;;2.13;1.20;;;;;;;;;;5013129;28;20058;-82
2023/05/05 13:14:45;;;;;;;2.05;1.73;;;;;;;;;;5001674;28;20036;-82
2023/05/05 13:17:13;;;;;;;1.63;1.50;;;;;;;;;;4988218;28;20100;-83
2023/05/05 13:19:44;;;;;;;1.55;1.40;;;;;;;;;;4975776;28;20075;-83
2023/05/05 13:22:15;;;;;;;1.88;1.42;;;;;;;;;;4977381;28;20494;-82
2023/05/05 13:24:44;;;;;;;1.92;1.05;;;;;;;;;;4991240;28;20501;-83
2023/05/05 13:27:25;;;;;;;2.97;1.60;;;;;;;;;;4987527;28;20058;-83
2023/05/05 13:30:01;;;;;;;2.22;1.77;;;;;;;;;;4996687;28;20506;-83
2023/05/05 13:32:31;;;;;;;4.55;2.00;;;;;;;;;;5006893;28;20129;-83
2023/05/05 13:35:04;;;;;;;2.67;1.17;;;;;;;;;;5012219;28;20050;-82
2023/05/05 13:37:37;;;;;;;1.60;1.00;;;;;;;;;;5002804;28;20084;-83
2023/05/05 13:40:09;;;;;;;4.60;1.05;;;;;;;;;;5017474;28;20077;-83
2023/05/05 13:42:39;;;;;;;1.63;1.23;;;;;;;;;;4972254;28;20053;-83
2023/05/05 13:45:07;;;;;;;2.67;1.30;;;;;;;;;;4981313;28;20045;-82
2023/05/05 13:47:35;;;;;;;6.35;2.42;;;;;;;;;;4985049;28;20581;-83
2023/05/05 13:50:03;;;;;;;3.15;1.58;;;;;;;;;;4980637;28;20050;-83
2023/05/05 13:52:43;;;;;;;5.30;1.53;;;;;;;;;;4985368;28;20049;-82
2023/05/05 13:55:11;;;;;;;1.52;1.42;;;;;;;;;;4983586;28;20297;-83
2023/05/05 13:57:39;;;;;;;3.53;1.80;;;;;;;;;;4972062;28;20079;-80
2023/05/05 14:00:07;;;;;;;1.77;1.45;;;;;;;;;;4979472;28;20575;-77
2023/05/05 14:02:38;;;;;;;2.92;1.40;;;;;;;;;;5006329;28;20050;-79
2023/05/05 14:05:12;;;;;;;1.83;1.33;;;;;;;;;;4991994;28;20054;-76
2023/05/05 14:07:48;;;;;;;;;;;;;;;;;;4985850;28;20049;-77
2023/05/05 14:10:18;;;;;;;2.97;1.48;;;;;;;;;;5000498;28;19927;-76
2023/05/05 14:12:53;;;;;;;3.78;1.42;;;;;;;;;;4991230;28;20052;-76
2023/05/05 14:15:35;;;;;;;2.45;1.40;;;;;;;;;;5004020;28;20128;-76
2023/05/05 14:18:06;;;;;;;1.90;1.13;;;;;;;;;;4986124;28;20592;-76
2023/05/05 14:20:34;;;;;;;3.55;1.42;;;;;;;;;;5002160;28;20054;-76
2023/05/05 14:23:12;;;;;;;4.05;1.40;;;;;;;;;;5022812;28;20045;-76
2023/05/05 14:25:57;;;;;;;2.72;1.45;;;;;;;;;;5000941;28;20107;-76
2023/05/05 14:28:31;;;;;;;3.92;1.60;;;;;;;;;;5019117;28;20050;-76
2023/05/05 14:30:59;;;;;;;2.75;1.60;;;;;;;;;;5007287;28;20096;-75
2023/05/05 14:33:27;;;;;;;1.50;1.27;;;;;;;;;;5004594;28;20076;-76
2023/05/05 14:36:00;;;;;;;2.55;1.40;;;;;;;;;;5002461;28;20103;-76
2023/05/05 14:38:28;;;;;;;3.08;1.65;;;;;;;;;;5019966;28;20087;-76
2023/05/05 14:41:01;;;;;;;2.50;1.20;;;;;;;;;;5001254;28;20060;-76
2023/05/05 14:43:31;;;;;;;3.03;1.60;;;;;;;;;;5003702;28;20042;-76
2023/05/05 14:46:20;;;;;;;2.80;1.50;;;;;;;;;;4994294;28;20050;-76
2023/05/05 14:48:57;;;;;;;3.60;1.55;;;;;;;;;;4999496;28;20403;-76
2023/05/05 14:51:30;;;;;;;2.90;1.40;;;;;;;;;;4982664;28;20077;-76
2023/05/05 14:54:02;;;;;;;2.92;1.23;;;;;;;;;;5018120;28;20061;-76
2023/05/05 14:56:40;;;;;;;2.13;1.40;;;;;;;;;;5001912;28;20111;-75
2023/05/05 14:59:21;;;;;;;2.58;1.20;;;;;;;;;;4984734;28;20053;-76
2023/05/05 15:01:56;;;;;;;2.13;1.30;;;;;;;;;;5006215;28;20049;-78